createdAt,value
2023-05-19T00:00:38.979Z,29.32
2023-05-19T00:03:10.100Z,29.29
2023-05-19T00:05:46.815Z,29.37
2023-05-19T00:08:19.951Z,29.41
2023-05-19T00:10:50.040Z,29.29
2023-05-19T00:13:19.727Z,29.29
2023-05-19T00:15:49.703Z,29.31
2023-05-19T00:18:19.402Z,29.32
2023-05-19T00:20:48.899Z,29.28
2023-05-19T00:23:18.187Z,29.32
2023-05-19T00:25:47.666Z,29.39
2023-05-19T00:28:17.306Z,29.43
2023-05-19T00:30:47.072Z,29.51
2023-05-19T00:33:16.325Z,29.50
2023-05-19T00:35:45.747Z,29.55
2023-05-19T00:38:15.062Z,29.63
2023-05-19T00:40:44.940Z,29.59
2023-05-19T00:43:14.587Z,29.60
2023-05-19T00:45:44.460Z,29.55
2023-05-19T00:48:13.729Z,29.63
2023-05-19T00:50:43.549Z,29.60
2023-05-19T00:53:14.374Z,29.73
2023-05-19T00:55:44.537Z,29.69
2023-05-19T00:58:15.542Z,29.71
2023-05-19T01:00:46.711Z,29.81
2023-05-19T01:03:21.484Z,29.80
2023-05-19T01:05:54.760Z,29.83
2023-05-19T01:08:24.682Z,29.84
2023-05-19T01:10:59.052Z,29.90
2023-05-19T01:13:47.328Z,30.01
2023-05-19T01:16:23.580Z,29.96
2023-05-19T01:19:14.222Z,30.11
2023-05-19T01:21:58.447Z,30.11
2023-05-19T01:25:01.680Z,30.25
2023-05-19T01:28:02.803Z,30.31
2023-05-19T01:30:38.621Z,30.33
2023-05-19T01:33:17.823Z,30.35
2023-05-19T01:35:49.113Z,30.32
2023-05-19T01:38:21.877Z,30.42
2023-05-19T01:40:53.046Z,30.43
2023-05-19T01:43:25.608Z,30.44
2023-05-19T01:45:56.542Z,30.45
2023-05-19T01:48:32.112Z,30.45
2023-05-19T01:51:03.809Z,30.66
2023-05-19T01:53:34.047Z,30.58
2023-05-19T01:56:04.598Z,30.64
2023-05-19T01:58:40.006Z,30.93
2023-05-19T02:01:18.566Z,30.93
2023-05-19T02:04:14.629Z,30.99
2023-05-19T02:07:02.890Z,31.01
2023-05-19T02:09:41.778Z,31.02
2023-05-19T02:12:32.784Z,31.12
2023-05-19T02:15:13.171Z,31.15
2023-05-19T02:17:48.869Z,30.96
2023-05-19T02:20:19.329Z,30.98
2023-05-19T02:22:49.237Z,31.21
2023-05-19T02:25:18.776Z,31.32
2023-05-19T02:27:50.227Z,31.00
2023-05-19T02:30:19.858Z,31.19
2023-05-19T02:32:49.430Z,31.42
2023-05-19T02:35:19.063Z,31.42
2023-05-19T02:37:48.528Z,31.51
2023-05-19T02:40:17.805Z,31.57
2023-05-19T02:42:47.396Z,31.68
2023-05-19T02:45:16.792Z,31.78
2023-05-19T02:47:46.685Z,31.79
2023-05-19T02:50:16.089Z,31.64
2023-05-19T02:52:45.561Z,31.72
2023-05-19T02:55:18.261Z,32.00
2023-05-19T02:57:47.674Z,32.00
2023-05-19T03:00:17.493Z,32.07
2023-05-19T03:02:47.416Z,32.08
2023-05-19T03:05:16.997Z,32.16
2023-05-19T03:07:46.806Z,32.10
2023-05-19T03:10:16.349Z,32.10
2023-05-19T03:12:45.617Z,32.07
2023-05-19T03:15:16.185Z,32.32
2023-05-19T03:17:46.097Z,32.38
2023-05-19T03:20:17.002Z,32.56
2023-05-19T03:22:46.685Z,32.47
2023-05-19T03:25:19.174Z,32.57
2023-05-19T03:27:48.780Z,32.46
2023-05-19T03:30:18.286Z,32.55
2023-05-19T03:33:13.808Z,32.70
2023-05-19T03:35:45.517Z,32.73
2023-05-19T03:38:16.475Z,32.76
2023-05-19T03:40:54.789Z,32.81
2023-05-19T03:43:24.517Z,33.04
2023-05-19T03:46:00.808Z,33.03
2023-05-19T03:48:48.990Z,33.17
2023-05-19T03:51:18.681Z,33.34
2023-05-19T03:53:50.086Z,33.51
2023-05-19T03:56:24.192Z,33.40
2023-05-19T03:58:56.685Z,33.45
2023-05-19T04:01:26.212Z,33.58
2023-05-19T04:03:55.697Z,33.68
2023-05-19T04:06:25.468Z,33.71
2023-05-19T04:08:56.350Z,34.02
2023-05-19T04:11:25.859Z,33.93
2023-05-19T04:13:55.050Z,34.05
2023-05-19T04:16:24.614Z,34.40
2023-05-19T04:18:54.009Z,34.39
2023-05-19T04:21:23.625Z,34.49
2023-05-19T04:23:56.675Z,34.66
2023-05-19T04:26:31.945Z,34.61
2023-05-19T04:29:03.166Z,34.83
2023-05-19T04:31:32.854Z,34.97
2023-05-19T04:34:04.624Z,35.16
2023-05-19T04:36:35.073Z,35.23
2023-05-19T04:39:09.764Z,35.65
2023-05-19T04:41:41.535Z,35.62
2023-05-19T04:44:11.305Z,35.85
2023-05-19T04:46:41.052Z,35.90
2023-05-19T04:49:16.487Z,36.15
2023-05-19T04:51:47.304Z,35.58
2023-05-19T04:54:17.019Z,36.12
2023-05-19T04:56:46.789Z,36.20
2023-05-19T04:59:16.984Z,36.35
2023-05-19T05:01:46.598Z,36.47
2023-05-19T05:04:18.338Z,36.12
2023-05-19T05:06:49.144Z,36.13
2023-05-19T05:09:23.261Z,36.57
2023-05-19T05:11:53.248Z,36.80
2023-05-19T05:14:23.142Z,36.73
2023-05-19T05:16:53.142Z,36.62
2023-05-19T05:19:26.030Z,36.96
2023-05-19T05:21:56.991Z,37.05
2023-05-19T05:24:27.273Z,36.96
2023-05-19T05:27:00.997Z,37.24
2023-05-19T05:29:32.390Z,37.23
2023-05-19T05:32:03.566Z,37.43
2023-05-19T05:34:33.779Z,37.18
2023-05-19T05:37:03.041Z,37.67
2023-05-19T05:39:39.068Z,37.70
2023-05-19T05:42:29.543Z,37.86
2023-05-19T05:44:59.578Z,37.72
2023-05-19T05:47:29.567Z,37.86
2023-05-19T05:49:59.748Z,37.99
2023-05-19T05:52:32.039Z,38.22
2023-05-19T05:55:03.226Z,37.99
2023-05-19T05:57:32.929Z,38.24
2023-05-19T06:00:02.536Z,38.38
2023-05-19T06:02:34.187Z,38.36
2023-05-19T06:05:03.827Z,38.64
2023-05-19T06:07:33.631Z,38.71
2023-05-19T06:10:03.798Z,38.75
2023-05-19T06:12:43.479Z,39.11
2023-05-19T06:15:14.355Z,38.72
2023-05-19T06:18:00.658Z,38.97
2023-05-19T06:20:31.210Z,38.77
2023-05-19T06:23:02.919Z,39.02
2023-05-19T06:25:32.856Z,39.28
2023-05-19T06:28:03.329Z,38.82
2023-05-19T06:30:33.105Z,39.39
2023-05-19T06:33:17.839Z,39.09
2023-05-19T06:35:47.418Z,39.44
2023-05-19T06:38:18.764Z,39.87
2023-05-19T06:40:48.561Z,40.06
2023-05-19T06:43:17.863Z,39.92
2023-05-19T06:45:57.060Z,39.64
2023-05-19T06:48:28.022Z,39.78
2023-05-19T06:50:57.820Z,39.60
2023-05-19T06:53:27.820Z,39.70
2023-05-19T06:55:59.869Z,39.76
2023-05-19T06:58:35.386Z,39.65
2023-05-19T07:01:07.684Z,39.53
2023-05-19T07:03:44.516Z,39.78
2023-05-19T07:06:18.753Z,39.92
2023-05-19T07:08:49.291Z,40.11
2023-05-19T07:11:19.950Z,39.99
2023-05-19T07:13:51.067Z,39.66
2023-05-19T07:16:26.772Z,39.88
2023-05-19T07:19:23.752Z,39.58
2023-05-19T07:22:04.948Z,39.90
2023-05-19T07:24:43.875Z,40.38
2023-05-19T07:27:33.816Z,40.21
2023-05-19T07:30:35.653Z,40.41
2023-05-19T07:33:42.022Z,40.01
2023-05-19T07:39:54.760Z,40.74
2023-05-19T07:42:32.386Z,40.57
2023-05-19T07:45:24.918Z,40.75
2023-05-19T07:48:15.429Z,40.55
2023-05-19T07:50:56.167Z,40.16
2023-05-19T07:53:48.648Z,40.24
2023-05-19T07:57:01.507Z,40.37
2023-05-19T07:59:59.444Z,40.56
2023-05-19T08:02:47.430Z,40.12
2023-05-19T08:05:58.901Z,40.49
2023-05-19T08:08:48.246Z,40.53
2023-05-19T08:11:41.502Z,40.53
2023-05-19T08:14:30.274Z,40.76
2023-05-19T08:20:40.272Z,40.64
2023-05-19T08:23:36.361Z,40.76
2023-05-19T08:26:25.773Z,41.24
2023-05-19T08:29:38.062Z,41.31
2023-05-19T08:32:38.163Z,41.42
2023-05-19T08:35:33.211Z,41.49
2023-05-19T08:38:22.904Z,41.59
2023-05-19T08:41:31.341Z,41.40
2023-05-19T08:44:26.387Z,41.86
2023-05-19T08:47:27.340Z,41.31
2023-05-19T08:50:11.570Z,41.60
2023-05-19T08:53:00.222Z,41.80
2023-05-19T08:55:51.548Z,41.85
2023-05-19T08:58:34.090Z,42.07
2023-05-19T09:01:07.981Z,41.95
2023-05-19T09:03:43.378Z,41.89
2023-05-19T09:06:28.476Z,41.63
2023-05-19T09:09:05.467Z,41.74
2023-05-19T09:11:39.948Z,41.66
2023-05-19T09:14:12.525Z,41.69
2023-05-19T09:16:47.013Z,41.48
2023-05-19T09:19:21.238Z,41.54
2023-05-19T09:22:09.119Z,41.51
2023-05-19T09:24:43.877Z,41.52
2023-05-19T09:27:30.349Z,41.28
2023-05-19T09:30:11.394Z,41.26
2023-05-19T09:35:48.594Z,41.21
2023-05-19T09:38:25.570Z,41.36
2023-05-19T09:41:04.403Z,41.20
2023-05-19T09:43:41.962Z,41.40
2023-05-19T09:46:19.812Z,41.52
2023-05-19T09:49:03.888Z,41.21
2023-05-19T09:51:54.467Z,40.82
2023-05-19T09:54:39.096Z,41.32
2023-05-19T09:57:11.639Z,41.24
2023-05-19T09:59:46.630Z,41.13
2023-05-19T10:02:23.750Z,41.17
2023-05-19T10:05:04.371Z,41.23
2023-05-19T10:07:41.216Z,40.94
2023-05-19T10:10:32.426Z,40.84
2023-05-19T10:13:11.049Z,41.02
2023-05-19T10:15:58.223Z,41.15
2023-05-19T10:18:39.987Z,41.10
2023-05-19T10:21:10.783Z,40.65
2023-05-19T10:23:40.461Z,40.94
2023-05-19T10:26:11.358Z,40.79
2023-05-19T10:28:44.840Z,40.94
2023-05-19T10:31:21.650Z,40.83
2023-05-19T12:15:09.736Z,39.99
2023-05-19T12:34:25.124Z,39.65
2023-05-19T12:37:15.469Z,39.31
2023-05-19T13:06:57.427Z,38.69
2023-05-19T13:16:56.229Z,38.38
2023-05-19T14:09:01.877Z,37.39
2023-05-19T15:44:32.340Z,35.74
2023-05-19T16:01:26.441Z,35.49
2023-05-19T16:25:41.763Z,35.32
2023-05-19T17:00:41.489Z,34.88
2023-05-19T18:03:18.995Z,33.87
